createdAt,value
2022-09-18T00:04:46.451Z,7.81
2022-09-18T00:09:54.287Z,7.72
2022-09-18T00:15:02.112Z,7.63
2022-09-18T00:20:11.789Z,7.57
2022-09-18T00:25:19.972Z,7.48
2022-09-18T00:30:27.854Z,7.42
2022-09-18T00:35:35.907Z,7.36
2022-09-18T00:40:43.704Z,7.30
2022-09-18T00:45:56.541Z,7.25
2022-09-18T00:51:05.037Z,7.19
2022-09-18T00:56:17.258Z,7.15
2022-09-18T01:01:26.385Z,7.04
2022-09-18T01:06:44.836Z,7.07
2022-09-18T01:11:57.760Z,7.05
2022-09-18T01:17:16.044Z,7.03
2022-09-18T01:22:33.812Z,7.01
2022-09-18T01:27:48.865Z,6.99
2022-09-18T01:33:02.801Z,6.96
2022-09-18T01:38:14.787Z,6.93
2022-09-18T01:43:27.109Z,6.91
2022-09-18T01:48:40.405Z,6.88
2022-09-18T01:53:51.367Z,6.86
2022-09-18T01:59:04.104Z,6.85
2022-09-18T02:04:37.899Z,6.87
2022-09-18T02:09:50.335Z,6.91
2022-09-18T02:15:06.365Z,6.95
2022-09-18T02:20:22.814Z,7.02
2022-09-18T02:25:37.362Z,7.11
2022-09-18T02:30:46.019Z,7.20
2022-09-18T02:36:04.489Z,7.30
2022-09-18T02:41:27.985Z,7.41
2022-09-18T02:46:49.288Z,7.53
2022-09-18T02:52:01.320Z,7.65
2022-09-18T02:57:15.539Z,7.75
2022-09-18T03:02:26.971Z,7.84
2022-09-18T03:07:35.708Z,7.92
2022-09-18T03:12:44.369Z,7.99
2022-09-18T03:17:52.462Z,8.06
2022-09-18T03:23:00.664Z,8.13
2022-09-18T03:28:08.644Z,8.21
2022-09-18T03:33:20.363Z,8.28
2022-09-18T03:38:28.595Z,8.34
2022-09-18T03:43:37.372Z,8.36
2022-09-18T03:48:46.583Z,8.40
2022-09-18T03:53:55.221Z,8.44
2022-09-18T03:59:32.896Z,8.48
2022-09-18T04:05:02.761Z,8.51
2022-09-18T04:10:33.911Z,8.56
2022-09-18T04:15:42.171Z,8.59
2022-09-18T04:20:50.271Z,8.61
2022-09-18T04:25:59.168Z,8.61
2022-09-18T04:31:12.371Z,8.60
2022-09-18T04:36:20.401Z,8.60
2022-09-18T04:41:28.277Z,8.60
2022-09-18T04:46:37.118Z,8.62
2022-09-18T04:51:45.187Z,8.63
2022-09-18T04:56:55.053Z,8.66
2022-09-18T05:02:03.796Z,8.70
2022-09-18T05:07:11.722Z,8.71
2022-09-18T05:12:20.120Z,8.71
2022-09-18T05:17:28.210Z,8.69
2022-09-18T05:22:41.365Z,8.71
2022-09-18T05:27:59.970Z,8.72
2022-09-18T05:33:14.020Z,8.75
2022-09-18T05:38:22.199Z,8.77
2022-09-18T05:43:30.441Z,8.80
2022-09-18T05:48:38.502Z,8.82
2022-09-18T05:53:48.876Z,8.87
2022-09-18T05:58:58.475Z,8.92
2022-09-18T06:04:07.638Z,8.98
2022-09-18T06:09:26.676Z,9.04
2022-09-18T06:14:34.039Z,9.09
2022-09-18T06:19:42.110Z,9.15
2022-09-18T06:24:50.742Z,9.22
2022-09-18T06:30:04.432Z,9.27
2022-09-18T06:35:14.693Z,9.37
2022-09-18T06:40:24.336Z,9.45
2022-09-18T06:45:57.383Z,9.48
2022-09-18T06:51:07.675Z,9.51
2022-09-18T06:56:24.334Z,9.54
2022-09-18T07:01:32.671Z,9.59
2022-09-18T07:06:56.034Z,9.68
2022-09-18T07:12:05.155Z,9.77
2022-09-18T07:17:26.642Z,9.84
2022-09-18T07:22:36.291Z,9.90
2022-09-18T07:27:45.257Z,9.94
2022-09-18T07:32:54.096Z,9.99
2022-09-18T07:38:09.744Z,10.03
2022-09-18T07:43:31.914Z,10.09
2022-09-18T07:48:41.793Z,10.14
2022-09-18T07:54:01.725Z,10.22
2022-09-18T07:59:28.125Z,10.32
2022-09-18T08:04:39.466Z,10.38
2022-09-18T08:10:17.226Z,10.38
2022-09-18T08:15:46.335Z,10.41
2022-09-18T08:21:10.497Z,10.44
2022-09-18T08:26:25.399Z,10.51
2022-09-18T08:31:33.343Z,10.62
2022-09-18T08:36:42.129Z,10.71
2022-09-18T08:42:25.739Z,10.75
2022-09-18T08:47:41.017Z,10.78
2022-09-18T08:52:54.979Z,10.83
2022-09-18T08:58:16.536Z,10.86
2022-09-18T09:03:33.510Z,10.90
2022-09-18T09:09:02.399Z,10.93
2022-09-18T09:14:55.468Z,10.97
2022-09-18T09:20:09.205Z,11.05
2022-09-18T09:25:25.567Z,11.09
2022-09-18T09:30:50.815Z,11.14
2022-09-18T09:36:20.267Z,11.17
2022-09-18T09:41:36.040Z,11.21
2022-09-18T09:47:08.075Z,11.23
2022-09-18T09:52:24.022Z,11.29
2022-09-18T09:57:40.722Z,11.32
2022-09-18T10:03:27.575Z,11.36
2022-09-18T10:08:43.687Z,11.41
2022-09-18T10:13:58.223Z,11.45
2022-09-18T10:19:07.103Z,11.46
2022-09-18T10:24:22.113Z,11.46
2022-09-18T10:29:35.546Z,11.39
2022-09-18T10:34:55.180Z,11.48
2022-09-18T10:40:05.435Z,11.49
2022-09-18T10:45:27.775Z,11.51
2022-09-18T10:50:57.886Z,11.51
2022-09-18T10:56:22.804Z,11.53
2022-09-18T11:01:33.675Z,11.53
2022-09-18T11:06:49.168Z,11.56
2022-09-18T11:12:03.378Z,11.60
2022-09-18T11:17:27.219Z,11.63
2022-09-18T11:22:43.594Z,11.64
2022-09-18T11:28:02.242Z,11.66
2022-09-18T11:33:22.624Z,11.69
2022-09-18T11:38:33.086Z,11.72
2022-09-18T11:43:45.046Z,11.78
2022-09-18T11:49:03.738Z,11.81
2022-09-18T11:54:25.986Z,11.86
2022-09-18T11:59:42.816Z,11.90
2022-09-18T12:04:54.798Z,11.93
2022-09-18T12:10:13.184Z,11.95
2022-09-18T12:15:24.531Z,11.97
2022-09-18T12:20:40.708Z,12.00
2022-09-18T12:26:08.528Z,12.03
2022-09-18T12:31:42.739Z,12.05
2022-09-18T12:37:08.835Z,12.09
2022-09-18T12:42:27.770Z,12.10
2022-09-18T12:48:01.016Z,12.14
2022-09-18T12:53:28.381Z,12.18
2022-09-18T12:58:52.038Z,12.21
2022-09-18T13:04:14.989Z,12.23
2022-09-18T13:09:29.159Z,12.26
2022-09-18T13:14:42.636Z,12.32
2022-09-18T13:19:57.781Z,12.40
2022-09-18T13:25:09.565Z,12.46
2022-09-18T13:30:27.612Z,12.52
2022-09-18T13:35:39.979Z,12.59
2022-09-18T13:40:50.757Z,12.67
2022-09-18T13:46:04.685Z,12.78
2022-09-18T13:51:28.498Z,12.85
2022-09-18T13:57:30.808Z,12.93
2022-09-18T14:02:40.589Z,13.00
2022-09-18T14:08:07.997Z,13.06
2022-09-18T14:13:43.607Z,13.09
2022-09-18T14:19:02.350Z,13.17
2022-09-18T14:30:04.916Z,13.33
2022-09-18T14:35:34.792Z,13.32
2022-09-18T14:40:43.676Z,13.37
2022-09-18T14:45:52.559Z,13.38
2022-09-18T14:51:06.369Z,13.37
2022-09-18T14:56:17.993Z,13.37
2022-09-18T15:01:30.408Z,13.37
2022-09-18T15:06:39.755Z,13.37
2022-09-18T15:12:02.328Z,13.39
2022-09-18T15:17:21.501Z,13.40
2022-09-18T15:22:30.452Z,13.42
2022-09-18T15:27:38.724Z,13.42
2022-09-18T15:32:51.360Z,13.43
2022-09-18T15:38:03.327Z,13.42
2022-09-18T15:43:43.832Z,13.44
2022-09-18T15:48:52.402Z,13.42
2022-09-18T15:54:25.118Z,13.43
2022-09-18T15:59:35.823Z,13.41
2022-09-18T16:04:43.311Z,13.41
2022-09-18T16:09:52.537Z,13.37
2022-09-18T16:15:19.268Z,13.33
2022-09-18T16:20:34.673Z,13.24
2022-09-18T16:25:44.166Z,13.12
2022-09-18T16:30:52.319Z,12.98
2022-09-18T16:36:05.378Z,12.88
2022-09-18T16:41:14.679Z,12.78
2022-09-18T16:46:24.287Z,12.67
2022-09-18T16:51:32.274Z,12.55
2022-09-18T16:56:45.443Z,12.44
2022-09-18T17:02:03.892Z,12.31
2022-09-18T17:07:13.759Z,12.18
2022-09-18T17:12:21.771Z,12.06
2022-09-18T17:17:30.077Z,11.94
2022-09-18T17:22:38.536Z,11.84
2022-09-18T17:27:46.674Z,11.75
2022-09-18T17:32:54.802Z,11.68
2022-09-18T17:38:02.902Z,11.58
2022-09-18T17:43:10.768Z,11.48
2022-09-18T17:48:18.772Z,11.39
2022-09-18T17:53:26.942Z,11.30
2022-09-18T17:58:39.326Z,11.21
2022-09-18T18:03:48.288Z,11.12
2022-09-18T18:08:56.876Z,11.06
2022-09-18T18:14:04.613Z,10.99
2022-09-18T18:19:14.182Z,10.96
2022-09-18T18:24:22.488Z,10.93
2022-09-18T18:29:30.487Z,10.92
2022-09-18T18:34:39.387Z,10.91
2022-09-18T18:39:48.654Z,10.88
2022-09-18T18:44:56.491Z,10.83
2022-09-18T18:50:04.846Z,10.74
2022-09-18T18:55:13.817Z,10.65
2022-09-18T19:00:27.783Z,10.55
2022-09-18T19:05:36.571Z,10.45
2022-09-18T19:10:47.139Z,10.35
2022-09-18T19:15:54.540Z,10.27
2022-09-18T19:21:03.737Z,10.19
2022-09-18T19:26:15.059Z,10.12
2022-09-18T19:31:25.153Z,10.04
2022-09-18T19:36:34.505Z,9.97
2022-09-18T19:41:47.899Z,9.90
2022-09-18T19:47:00.354Z,9.84
2022-09-18T19:52:19.235Z,9.79
2022-09-18T19:57:28.863Z,9.74
2022-09-18T20:02:36.756Z,9.71
2022-09-18T20:07:44.753Z,9.70
2022-09-18T20:12:52.974Z,9.68
2022-09-18T20:18:00.966Z,9.66
2022-09-18T20:23:09.092Z,9.67
2022-09-18T20:28:17.010Z,9.67
2022-09-18T20:33:26.006Z,9.65
2022-09-18T20:38:36.245Z,9.64
2022-09-18T20:43:44.851Z,9.63
2022-09-18T20:48:55.393Z,9.62
2022-09-18T20:54:04.719Z,9.63
2022-09-18T20:59:13.347Z,9.64
2022-09-18T21:04:22.961Z,9.65
2022-09-18T21:09:32.491Z,9.67
2022-09-18T21:14:41.093Z,9.68
2022-09-18T21:19:50.454Z,9.70
2022-09-18T21:24:58.537Z,9.71
2022-09-18T21:30:08.122Z,9.73
2022-09-18T21:35:16.415Z,9.73
2022-09-18T21:40:24.713Z,9.74
2022-09-18T21:45:32.845Z,9.74
2022-09-18T21:50:41.383Z,9.74
2022-09-18T21:55:49.337Z,9.75
2022-09-18T22:00:57.307Z,9.75
2022-09-18T22:06:05.677Z,9.75
2022-09-18T22:11:13.537Z,9.75
2022-09-18T22:16:21.912Z,9.74
2022-09-18T22:21:32.649Z,9.74
2022-09-18T22:26:42.614Z,9.73
2022-09-18T22:31:51.685Z,9.73
2022-09-18T22:36:59.942Z,9.72
2022-09-18T22:42:08.003Z,9.71
2022-09-18T22:47:16.490Z,9.67
2022-09-18T22:52:24.527Z,9.66
2022-09-18T22:57:32.825Z,9.66
2022-09-18T23:02:40.639Z,9.65
2022-09-18T23:07:50.754Z,9.65
2022-09-18T23:12:58.990Z,9.65
2022-09-18T23:18:07.298Z,9.61
2022-09-18T23:23:15.244Z,9.60
2022-09-18T23:28:23.110Z,9.57
2022-09-18T23:33:30.943Z,9.56
2022-09-18T23:38:39.165Z,9.53
2022-09-18T23:43:51.176Z,9.49
2022-09-18T23:48:59.496Z,9.47
2022-09-18T23:54:17.514Z,9.45
